Time;durP1;ratioP1;P1;durP2;ratioP2;P2;SDS_P1;SDS_P2;PMS_P1;PMS_P2;Temp;Humidity;BMP_temperature;BMP_pressure;BME280_temperature;BME280_humidity;BME280_pressure;Samples;Min_cycle;Max_cycle;Signal;HPM_P1;HPM_P2
2023/12/17 00:00:16;;;;;;;5.77;4.07;;;4.20;99.90;;;;;;5095925;28;20465;-79
2023/12/17 00:02:41;;;;;;;8.17;4.00;;;4.20;99.90;;;;;;5097534;28;20035;-78
2023/12/17 00:05:07;;;;;;;10.20;4.67;;;4.10;99.90;;;;;;5096017;28;20028;-78
2023/12/17 00:07:33;;;;;;;8.07;4.03;;;4.10;99.90;;;;;;5097477;28;20051;-78
2023/12/17 00:09:59;;;;;;;8.43;4.17;;;4.00;99.90;;;;;;5096427;28;20028;-78
2023/12/17 00:12:24;;;;;;;8.70;4.17;;;4.00;99.90;;;;;;5096687;28;20107;-78
2023/12/17 00:14:50;;;;;;;6.93;3.67;;;4.00;99.90;;;;;;5096346;28;20082;-78
2023/12/17 00:17:15;;;;;;;8.80;3.60;;;4.00;99.90;;;;;;5095788;28;20034;-79
2023/12/17 00:19:41;;;;;;;7.43;4.07;;;3.80;99.90;;;;;;5097247;28;20024;-78
2023/12/17 00:22:06;;;;;;;9.03;4.03;;;3.90;99.90;;;;;;5095643;28;20107;-79
2023/12/17 00:24:32;;;;;;;8.13;4.17;;;3.90;99.90;;;;;;5095597;28;20042;-78
2023/12/17 00:26:58;;;;;;;9.77;4.07;;;3.90;99.90;;;;;;5096187;28;20028;-79
2023/12/17 00:29:24;;;;;;;11.20;4.07;;;3.90;99.90;;;;;;5096195;28;20032;-78
2023/12/17 00:31:49;;;;;;;9.13;4.20;;;3.80;99.90;;;;;;5095860;28;20028;-77
2023/12/17 00:34:15;;;;;;;9.30;4.63;;;3.70;99.90;;;;;;5094888;28;20028;-79
2023/12/17 00:36:40;;;;;;;11.33;4.20;;;3.70;99.90;;;;;;5096891;28;20060;-78
2023/12/17 00:39:07;;;;;;;6.60;3.80;;;3.70;99.90;;;;;;5096371;28;20028;-79
2023/12/17 00:41:33;;;;;;;6.60;3.73;;;3.60;99.90;;;;;;5095498;28;20055;-78
2023/12/17 00:43:59;;;;;;;6.93;3.60;;;3.60;99.90;;;;;;5095702;28;20074;-78
2023/12/17 00:46:25;;;;;;;6.70;3.40;;;3.60;99.90;;;;;;5094965;28;20064;-79
2023/12/17 00:48:50;;;;;;;6.50;3.80;;;3.70;99.90;;;;;;5095667;28;20025;-79
2023/12/17 00:51:16;;;;;;;6.50;3.50;;;3.60;99.90;;;;;;5095037;28;20035;-78
2023/12/17 00:53:41;;;;;;;7.03;3.80;;;3.60;99.90;;;;;;5095740;28;20031;-78
2023/12/17 00:56:07;;;;;;;6.03;3.47;;;3.60;99.90;;;;;;5096042;28;20419;-79
2023/12/17 00:58:33;;;;;;;5.83;3.57;;;3.60;99.90;;;;;;5095486;28;20051;-78
2023/12/17 01:00:58;;;;;;;6.60;3.83;;;3.60;99.90;;;;;;5096588;28;20035;-78
2023/12/17 01:03:24;;;;;;;8.57;4.00;;;3.60;99.90;;;;;;5096023;28;20632;-79
2023/12/17 01:05:49;;;;;;;7.07;3.67;;;3.50;99.90;;;;;;5095909;28;20042;-79
2023/12/17 01:08:15;;;;;;;6.93;3.87;;;3.60;99.90;;;;;;5094353;28;20028;-79
2023/12/17 01:10:41;;;;;;;6.23;3.23;;;3.60;99.90;;;;;;5095838;28;20032;-78
2023/12/17 01:13:07;;;;;;;8.83;3.60;;;3.50;99.90;;;;;;5094511;28;20025;-79
2023/12/17 01:15:32;;;;;;;8.67;3.97;;;3.60;99.90;;;;;;5094934;28;20035;-79
2023/12/17 01:17:58;;;;;;;10.90;4.20;;;3.50;99.90;;;;;;5095192;28;20020;-79
2023/12/17 01:20:24;;;;;;;6.97;3.47;;;3.50;99.90;;;;;;5095432;28;20046;-79
2023/12/17 01:22:49;;;;;;;5.97;3.57;;;3.40;99.90;;;;;;5094997;28;20024;-79
2023/12/17 01:25:15;;;;;;;9.00;3.90;;;3.50;99.90;;;;;;5094545;28;20032;-78
2023/12/17 01:27:40;;;;;;;8.27;3.70;;;3.40;99.90;;;;;;5095998;28;20024;-79
2023/12/17 01:30:08;;;;;;;7.73;4.03;;;3.50;99.90;;;;;;5094763;28;20020;-85
2023/12/17 01:32:33;;;;;;;6.53;3.97;;;3.40;99.90;;;;;;5095960;28;20024;-78
2023/12/17 01:34:59;;;;;;;7.63;3.80;;;3.40;99.90;;;;;;5095645;28;20384;-78
2023/12/17 01:37:25;;;;;;;9.03;4.10;;;3.40;99.90;;;;;;5094412;28;20024;-77
2023/12/17 01:39:50;;;;;;;8.20;3.90;;;3.40;99.90;;;;;;5099563;28;20048;-78
2023/12/17 01:42:16;;;;;;;9.50;3.50;;;3.30;99.90;;;;;;5097315;28;20434;-79
2023/12/17 01:44:41;;;;;;;8.17;3.97;;;3.30;99.90;;;;;;5097763;28;20023;-79
2023/12/17 01:47:08;;;;;;;8.00;4.07;;;3.30;99.90;;;;;;5115697;28;20513;-83
2023/12/17 01:49:34;;;;;;;11.73;4.03;;;3.30;99.90;;;;;;5098119;28;20030;-78
2023/12/17 01:52:00;;;;;;;9.23;4.07;;;3.20;99.90;;;;;;5097732;28;20114;-79
2023/12/17 01:54:26;;;;;;;7.83;4.37;;;3.30;99.90;;;;;;5097214;28;20049;-77
2023/12/17 01:56:53;;;;;;;7.27;3.97;;;3.20;99.90;;;;;;5097202;28;20024;-78
2023/12/17 01:59:18;;;;;;;7.03;3.90;;;3.20;99.90;;;;;;5097027;28;20024;-79
2023/12/17 02:01:48;;;;;;;9.03;4.27;;;3.10;99.90;;;;;;5115472;28;20116;-78
2023/12/17 02:04:14;;;;;;;7.33;4.20;;;3.10;99.90;;;;;;5114926;28;20020;-79
2023/12/17 02:06:39;;;;;;;9.90;4.43;;;3.10;99.90;;;;;;5097481;28;20034;-78
2023/12/17 02:09:05;;;;;;;6.53;3.50;;;3.10;99.90;;;;;;5097462;28;20028;-77
2023/12/17 02:11:31;;;;;;;8.20;4.37;;;3.10;99.90;;;;;;5114917;28;20035;-77
2023/12/17 02:13:56;;;;;;;8.17;3.87;;;3.10;99.90;;;;;;5114811;28;20019;-80
2023/12/17 02:16:22;;;;;;;8.80;4.20;;;3.20;99.90;;;;;;5096571;28;20031;-78
2023/12/17 02:18:47;;;;;;;7.97;3.57;;;3.20;99.90;;;;;;5114803;28;20107;-78
2023/12/17 02:21:13;;;;;;;7.40;4.07;;;3.30;99.90;;;;;;5114122;28;20102;-78
2023/12/17 02:23:39;;;;;;;7.43;3.90;;;3.30;99.90;;;;;;5096611;28;20495;-78
2023/12/17 02:26:05;;;;;;;6.20;4.03;;;3.30;99.90;;;;;;5096580;28;20073;-77
2023/12/17 02:28:30;;;;;;;8.63;4.50;;;3.20;99.90;;;;;;5096621;28;20027;-78
2023/12/17 02:30:56;;;;;;;9.30;4.00;;;3.10;99.90;;;;;;5096842;28;20445;-78
2023/12/17 02:33:22;;;;;;;7.57;4.10;;;3.10;99.90;;;;;;5096489;28;20024;-78
2023/12/17 02:35:47;;;;;;;7.23;4.30;;;3.10;99.90;;;;;;5096527;28;20034;-78
2023/12/17 02:38:13;;;;;;;7.07;4.10;;;3.00;99.90;;;;;;5096214;28;20028;-81
2023/12/17 02:40:38;;;;;;;9.10;3.83;;;3.00;99.90;;;;;;5114645;28;20055;-81
2023/12/17 02:43:04;;;;;;;7.00;3.63;;;2.90;99.90;;;;;;5114671;28;20030;-81
2023/12/17 02:45:29;;;;;;;8.90;4.67;;;2.90;99.90;;;;;;5095991;28;20123;-81
2023/12/17 02:47:55;;;;;;;6.27;3.70;;;2.90;99.90;;;;;;5096646;28;20027;-78
2023/12/17 02:50:20;;;;;;;7.43;3.50;;;2.90;99.90;;;;;;5114228;28;20035;-78
2023/12/17 02:52:46;;;;;;;7.03;3.47;;;3.00;99.90;;;;;;5114740;28;20513;-78
2023/12/17 02:55:12;;;;;;;6.90;3.90;;;3.00;99.90;;;;;;5096066;28;20456;-83
2023/12/17 02:57:37;;;;;;;6.50;4.00;;;3.00;99.90;;;;;;5114499;28;20035;-81
2023/12/17 03:00:03;;;;;;;7.60;3.93;;;3.00;99.90;;;;;;5096237;28;20024;-78
2023/12/17 03:02:29;;;;;;;9.27;4.20;;;3.00;99.90;;;;;;5095983;28;20051;-77
2023/12/17 03:04:54;;;;;;;7.80;3.93;;;2.90;99.90;;;;;;5114182;28;20136;-77
2023/12/17 03:07:21;;;;;;;6.80;3.70;;;3.00;99.90;;;;;;5113660;28;20031;-77
2023/12/17 03:09:47;;;;;;;8.77;4.17;;;3.00;99.90;;;;;;5095786;28;20080;-78
2023/12/17 03:12:13;;;;;;;9.40;3.97;;;3.10;99.90;;;;;;5095535;28;20106;-82
2023/12/17 03:14:39;;;;;;;8.60;3.63;;;3.10;99.90;;;;;;5095987;28;20031;-78
2023/12/17 03:17:05;;;;;;;4.90;2.87;;;3.10;99.90;;;;;;5096258;28;20084;-77
2023/12/17 03:19:31;;;;;;;7.83;3.43;;;3.10;99.90;;;;;;5095609;28;20460;-78
2023/12/17 03:21:57;;;;;;;4.73;3.13;;;3.10;99.90;;;;;;5095956;28;20019;-78
2023/12/17 03:24:22;;;;;;;5.27;3.10;;;3.10;99.90;;;;;;5095379;28;20027;-78
2023/12/17 03:26:48;;;;;;;4.77;2.80;;;3.00;99.90;;;;;;5096004;28;20023;-78
2023/12/17 03:29:14;;;;;;;5.73;3.13;;;3.00;99.90;;;;;;5113530;28;20027;-84
2023/12/17 03:31:39;;;;;;;4.73;2.60;;;2.90;99.90;;;;;;5095883;28;20118;-78
2023/12/17 03:34:05;;;;;;;4.67;2.87;;;3.00;99.90;;;;;;5095681;28;20111;-78
2023/12/17 03:36:30;;;;;;;5.10;2.93;;;3.00;99.90;;;;;;5095222;28;20024;-78
2023/12/17 03:38:56;;;;;;;4.17;2.70;;;3.00;99.90;;;;;;5113871;28;20023;-78
2023/12/17 03:41:27;;;;;;;4.43;2.60;;;3.00;99.90;;;;;;5091872;28;20101;-78
2023/12/17 03:43:55;;;;;;;4.80;2.50;;;2.90;99.90;;;;;;5092347;28;20028;-78
2023/12/17 03:46:21;;;;;;;6.27;2.87;;;3.00;99.90;;;;;;5092806;28;20419;-78
2023/12/17 03:48:47;;;;;;;4.43;2.70;;;3.00;99.90;;;;;;5092252;28;20059;-78
2023/12/17 03:51:13;;;;;;;3.23;2.37;;;3.00;99.90;;;;;;5092190;28;20047;-78
2023/12/17 03:53:39;;;;;;;5.63;2.90;;;3.00;99.90;;;;;;5091720;28;20449;-78
2023/12/17 03:56:12;;;;;;;5.83;2.80;;;3.00;99.90;;;;;;5092159;28;20028;-78
2023/12/17 03:58:38;;;;;;;5.60;2.90;;;3.00;99.90;;;;;;5091681;28;20028;-78
2023/12/17 04:01:05;;;;;;;6.90;3.10;;;3.00;99.90;;;;;;5092191;28;20028;-78
2023/12/17 04:03:31;;;;;;;5.20;2.70;;;2.90;99.90;;;;;;5091586;28;20484;-78
2023/12/17 04:05:59;;;;;;;6.70;3.37;;;2.90;99.90;;;;;;5091942;28;20032;-78
2023/12/17 04:08:25;;;;;;;7.27;3.57;;;2.90;99.90;;;;;;5091736;28;20027;-78
2023/12/17 04:10:50;;;;;;;6.00;3.30;;;2.90;99.90;;;;;;5091976;28;20376;-78
2023/12/17 04:13:16;;;;;;;5.33;3.03;;;2.90;99.90;;;;;;5091582;28;20028;-85
2023/12/17 04:15:42;;;;;;;5.90;3.00;;;2.90;99.90;;;;;;5091807;28;20427;-79
2023/12/17 04:18:07;;;;;;;6.37;3.93;;;2.90;99.90;;;;;;5092246;28;20103;-80
2023/12/17 04:20:33;;;;;;;6.47;3.20;;;2.90;99.90;;;;;;5092643;28;20032;-78
2023/12/17 04:22:58;;;;;;;8.07;3.73;;;2.90;99.90;;;;;;5091918;28;20439;-78
2023/12/17 04:25:25;;;;;;;7.07;4.00;;;2.80;99.90;;;;;;5090771;28;20035;-78
2023/12/17 04:27:51;;;;;;;7.50;3.20;;;2.80;99.90;;;;;;5093007;28;20022;-78
2023/12/17 04:30:17;;;;;;;6.37;3.30;;;2.80;99.90;;;;;;5092025;28;20088;-78
2023/12/17 04:32:42;;;;;;;8.07;3.97;;;2.80;99.90;;;;;;5091794;28;20486;-78
2023/12/17 04:35:08;;;;;;;11.43;3.97;;;2.70;99.90;;;;;;5092895;28;20111;-78
2023/12/17 04:37:34;;;;;;;6.10;3.70;;;2.80;99.90;;;;;;5092325;28;20104;-77
2023/12/17 04:39:59;;;;;;;9.57;3.77;;;2.80;99.90;;;;;;5091362;28;20095;-78
2023/12/17 04:42:25;;;;;;;5.13;3.57;;;2.80;99.90;;;;;;5091561;28;20173;-78
2023/12/17 04:44:51;;;;;;;6.03;3.87;;;2.80;99.90;;;;;;5095235;28;20028;-78
2023/12/17 04:47:17;;;;;;;8.70;4.00;;;2.80;99.90;;;;;;5096365;28;20111;-78
2023/12/17 04:49:42;;;;;;;7.87;4.03;;;2.80;99.90;;;;;;5095085;28;20457;-78
2023/12/17 04:52:08;;;;;;;8.43;3.90;;;2.80;99.90;;;;;;5095305;28;20020;-78
2023/12/17 04:54:33;;;;;;;9.07;4.30;;;2.80;99.90;;;;;;5095060;28;20028;-78
2023/12/17 04:56:59;;;;;;;10.90;4.37;;;2.80;99.90;;;;;;5095999;28;20032;-78
2023/12/17 04:59:25;;;;;;;7.73;4.07;;;2.80;99.90;;;;;;5095039;28;20069;-78
2023/12/17 05:01:51;;;;;;;8.73;4.43;;;2.80;99.90;;;;;;5095470;28;20024;-78
2023/12/17 05:04:16;;;;;;;11.33;4.77;;;2.90;99.90;;;;;;5096285;28;20151;-78
2023/12/17 05:06:42;;;;;;;8.27;4.17;;;2.80;99.90;;;;;;5095922;28;20028;-78
2023/12/17 05:09:08;;;;;;;7.30;3.73;;;2.80;99.90;;;;;;5094789;28;20035;-78
2023/12/17 05:11:34;;;;;;;9.27;3.73;;;2.90;99.90;;;;;;5094303;28;20115;-78
2023/12/17 05:14:00;;;;;;;8.10;4.50;;;2.90;99.90;;;;;;5095230;28;20383;-78
2023/12/17 05:16:26;;;;;;;7.50;3.83;;;2.80;99.90;;;;;;5094685;28;20488;-78
2023/12/17 05:18:51;;;;;;;6.97;4.30;;;2.80;99.90;;;;;;5096139;28;20020;-82
2023/12/17 05:21:17;;;;;;;7.13;3.93;;;2.70;99.90;;;;;;5094790;28;20115;-81
2023/12/17 05:23:43;;;;;;;7.63;3.70;;;2.80;99.90;;;;;;5094393;28;20020;-80
2023/12/17 05:26:09;;;;;;;6.83;3.70;;;2.70;99.90;;;;;;5094718;28;20032;-80
2023/12/17 05:28:34;;;;;;;7.00;3.80;;;2.70;99.90;;;;;;5095410;28;20035;-81
2023/12/17 05:31:00;;;;;;;5.87;3.43;;;2.70;99.90;;;;;;5094499;28;20030;-79
2023/12/17 05:33:26;;;;;;;6.60;3.87;;;2.80;99.90;;;;;;5094110;28;20110;-78
2023/12/17 05:35:51;;;;;;;8.57;4.13;;;2.70;99.90;;;;;;5094593;28;20027;-78
2023/12/17 05:38:18;;;;;;;8.40;3.80;;;2.70;99.90;;;;;;5095518;28;20059;-78
2023/12/17 05:40:43;;;;;;;8.93;4.50;;;2.60;99.90;;;;;;5093600;28;20186;-78
2023/12/17 05:43:09;;;;;;;9.53;4.67;;;2.70;99.90;;;;;;5094604;28;20077;-78
2023/12/17 05:45:35;;;;;;;7.93;4.70;;;2.70;99.90;;;;;;5093728;28;20036;-78
2023/12/17 05:48:00;;;;;;;7.70;4.63;;;2.70;99.90;;;;;;5094191;28;20027;-78
2023/12/17 05:50:26;;;;;;;9.67;4.57;;;2.70;99.90;;;;;;5094095;28;20024;-78
2023/12/17 05:52:51;;;;;;;8.13;4.67;;;2.70;99.90;;;;;;5094258;28;20401;-78
2023/12/17 05:55:17;;;;;;;8.77;4.90;;;2.70;99.90;;;;;;5094158;28;20111;-78
2023/12/17 05:57:44;;;;;;;10.17;5.07;;;2.70;99.90;;;;;;5093763;28;20081;-78
2023/12/17 06:00:10;;;;;;;10.87;5.53;;;2.80;99.90;;;;;;5094182;28;20032;-78
2023/12/17 06:02:36;;;;;;;8.87;4.73;;;2.70;99.90;;;;;;5093441;28;20065;-78
2023/12/17 06:05:02;;;;;;;9.90;5.43;;;2.70;99.90;;;;;;5095137;28;20428;-79
2023/12/17 06:07:27;;;;;;;10.13;5.47;;;2.70;99.90;;;;;;5093819;28;20070;-78
2023/12/17 06:09:53;;;;;;;8.50;5.07;;;2.70;99.90;;;;;;5093710;28;20453;-78
2023/12/17 06:12:19;;;;;;;9.87;5.07;;;2.70;99.90;;;;;;5094801;28;20032;-78
2023/12/17 06:14:44;;;;;;;10.63;5.43;;;2.70;99.90;;;;;;5093431;28;20050;-78
2023/12/17 06:17:10;;;;;;;9.07;4.97;;;2.70;99.90;;;;;;5094981;28;20020;-78
2023/12/17 06:19:37;;;;;;;9.87;5.30;;;2.60;99.90;;;;;;5093110;28;20028;-78
2023/12/17 06:22:03;;;;;;;8.63;4.40;;;2.70;99.90;;;;;;5093860;28;20035;-78
2023/12/17 06:24:28;;;;;;;9.13;4.97;;;2.70;99.90;;;;;;5093234;28;20024;-78
2023/12/17 06:26:55;;;;;;;9.07;4.87;;;2.60;99.90;;;;;;5093196;28;20069;-78
2023/12/17 06:29:21;;;;;;;12.30;4.97;;;2.60;99.90;;;;;;5093629;28;20026;-78
2023/12/17 06:31:46;;;;;;;9.10;4.80;;;2.60;99.90;;;;;;5093069;28;20024;-78
2023/12/17 06:34:13;;;;;;;8.27;4.60;;;2.60;99.90;;;;;;5094189;28;20035;-78
2023/12/17 06:36:39;;;;;;;10.23;4.20;;;2.60;99.90;;;;;;5093881;28;20020;-78
2023/12/17 06:39:09;;;;;;;11.43;4.60;;;2.60;99.90;;;;;;5093281;28;20077;-78
2023/12/17 06:41:36;;;;;;;7.30;4.07;;;2.60;99.90;;;;;;5092452;28;20488;-78
2023/12/17 06:44:01;;;;;;;7.23;4.17;;;2.60;99.90;;;;;;5094264;28;20028;-78
2023/12/17 06:46:27;;;;;;;7.70;4.13;;;2.60;99.90;;;;;;5094030;28;20032;-79
2023/12/17 06:48:52;;;;;;;7.73;4.17;;;2.60;99.90;;;;;;5093276;28;20028;-78
2023/12/17 06:51:18;;;;;;;8.57;4.63;;;2.50;99.90;;;;;;5093184;28;20031;-78
2023/12/17 06:53:44;;;;;;;7.67;4.73;;;2.50;99.90;;;;;;5092609;28;20393;-78
2023/12/17 06:56:10;;;;;;;9.70;4.93;;;2.40;99.90;;;;;;5093238;28;20039;-78
2023/12/17 06:58:36;;;;;;;8.93;4.70;;;2.40;99.90;;;;;;5093741;28;20032;-78
2023/12/17 07:01:02;;;;;;;13.07;5.10;;;2.40;99.90;;;;;;5094200;28;20103;-78
2023/12/17 07:03:27;;;;;;;8.50;5.00;;;2.40;99.90;;;;;;5092637;28;20064;-79
2023/12/17 07:05:53;;;;;;;9.53;5.07;;;2.40;99.90;;;;;;5092724;28;20089;-78
2023/12/17 07:08:19;;;;;;;8.73;4.77;;;2.40;99.90;;;;;;5092524;28;20125;-78
2023/12/17 07:10:45;;;;;;;10.30;4.90;;;2.40;99.90;;;;;;5092046;28;20038;-78
2023/12/17 07:13:10;;;;;;;10.57;4.80;;;2.40;99.90;;;;;;5093034;28;20115;-78
2023/12/17 07:15:36;;;;;;;9.60;5.10;;;2.40;99.90;;;;;;5092356;28;20066;-79
2023/12/17 07:18:02;;;;;;;9.87;5.03;;;2.40;99.90;;;;;;5093040;28;20032;-78
2023/12/17 07:20:27;;;;;;;10.13;5.00;;;2.40;99.90;;;;;;5093431;28;20388;-83
2023/12/17 07:22:53;;;;;;;12.27;5.33;;;2.40;99.90;;;;;;5093906;28;20032;-78
2023/12/17 07:25:19;;;;;;;9.87;5.50;;;2.40;99.90;;;;;;5084608;28;20074;-81
2023/12/17 07:27:45;;;;;;;11.07;5.50;;;2.30;99.90;;;;;;5083394;28;20036;-84
2023/12/17 07:30:11;;;;;;;12.60;5.30;;;2.30;99.90;;;;;;5083473;28;20475;-78
2023/12/17 07:32:37;;;;;;;11.03;4.90;;;2.30;99.90;;;;;;5082579;28;20024;-79
2023/12/17 07:35:06;;;;;;;10.73;5.37;;;2.40;99.90;;;;;;5083161;28;20024;-78
2023/12/17 07:37:32;;;;;;;9.50;5.43;;;2.40;99.90;;;;;;5084154;28;20023;-78
2023/12/17 07:39:57;;;;;;;9.67;5.37;;;2.40;99.90;;;;;;5088514;28;20408;-80
2023/12/17 07:42:23;;;;;;;10.20;5.37;;;2.40;99.90;;;;;;5087919;28;20164;-78
2023/12/17 07:44:49;;;;;;;8.30;4.93;;;2.40;99.90;;;;;;5112917;28;20035;-78
2023/12/17 07:47:14;;;;;;;10.17;4.50;;;2.40;99.90;;;;;;5095640;28;20024;-77
2023/12/17 07:49:40;;;;;;;11.13;4.63;;;2.40;99.90;;;;;;5112804;28;20020;-78
2023/12/17 07:52:06;;;;;;;10.77;5.00;;;2.40;99.90;;;;;;5113826;28;20461;-78
2023/12/17 07:54:32;;;;;;;7.40;4.53;;;2.40;99.90;;;;;;5095089;28;20020;-78
2023/12/17 07:56:58;;;;;;;11.23;5.13;;;2.40;99.90;;;;;;5113583;28;20027;-77
2023/12/17 07:59:25;;;;;;;10.07;5.40;;;2.50;99.90;;;;;;5096037;28;20024;-78
2023/12/17 08:01:51;;;;;;;14.43;5.50;;;2.50;99.90;;;;;;5094429;28;20023;-78
2023/12/17 08:04:17;;;;;;;10.90;5.23;;;2.50;99.90;;;;;;5113449;28;20511;-78
2023/12/17 08:06:43;;;;;;;9.30;5.37;;;2.50;99.90;;;;;;5094876;28;20036;-78
2023/12/17 08:09:10;;;;;;;13.90;6.43;;;2.50;99.90;;;;;;5094893;28;20177;-78
2023/12/17 08:11:35;;;;;;;10.83;5.33;;;2.50;99.90;;;;;;5095137;28;20164;-78
2023/12/17 08:14:01;;;;;;;9.80;5.60;;;2.50;99.90;;;;;;5095693;28;20065;-78
2023/12/17 08:16:26;;;;;;;11.60;6.50;;;2.50;99.90;;;;;;5113686;28;20036;-78
2023/12/17 08:18:52;;;;;;;8.73;5.20;;;2.50;99.90;;;;;;5097619;28;20020;-83
2023/12/17 08:21:17;;;;;;;11.80;5.90;;;2.50;99.90;;;;;;5090244;28;20019;-79
2023/12/17 08:23:43;;;;;;;11.67;5.37;;;2.50;99.90;;;;;;5093870;28;20022;-79
2023/12/17 08:26:10;;;;;;;9.77;5.67;;;2.60;99.90;;;;;;5110629;28;20472;-79
2023/12/17 08:28:36;;;;;;;8.57;4.83;;;2.60;99.90;;;;;;5098605;28;20024;-79
2023/12/17 08:31:08;;;;;;;10.43;5.20;;;2.60;99.90;;;;;;5095243;28;20023;-78
2023/12/17 08:33:34;;;;;;;13.00;5.65;;;2.60;99.90;;;;;;5110381;28;20016;-85
2023/12/17 08:35:59;;;;;;;10.90;5.37;;;2.60;99.90;;;;;;5107808;28;20040;-79
2023/12/17 08:38:25;;;;;;;7.63;5.20;;;2.60;99.90;;;;;;5089919;28;20024;-86
2023/12/17 08:40:51;;;;;;;8.13;4.97;;;2.70;99.90;;;;;;5088059;28;20044;-79
2023/12/17 08:43:17;;;;;;;8.20;5.13;;;2.70;99.90;;;;;;5088071;28;20024;-79
2023/12/17 08:45:43;;;;;;;8.60;5.00;;;2.70;99.90;;;;;;5086951;28;20043;-86
2023/12/17 08:48:08;;;;;;;9.63;4.90;;;2.70;99.90;;;;;;5093802;28;20016;-79
2023/12/17 08:50:34;;;;;;;7.30;4.30;;;2.70;99.90;;;;;;5096041;28;20020;-87
2023/12/17 08:52:59;;;;;;;9.53;5.23;;;2.80;99.90;;;;;;5094903;28;20168;-79
2023/12/17 08:55:25;;;;;;;7.47;4.63;;;2.80;99.90;;;;;;5085503;28;20046;-79
2023/12/17 08:57:51;;;;;;;8.20;4.80;;;2.80;99.90;;;;;;5095212;28;20016;-78
2023/12/17 09:00:17;;;;;;;8.93;4.87;;;2.80;99.90;;;;;;5095285;28;20107;-78
2023/12/17 09:02:43;;;;;;;10.73;5.23;;;2.80;99.90;;;;;;5095723;28;20020;-80
2023/12/17 09:05:08;;;;;;;9.13;5.40;;;2.90;99.90;;;;;;5096188;28;20039;-79
2023/12/17 09:07:34;;;;;;;8.63;5.20;;;2.90;99.90;;;;;;5095495;28;20024;-80
2023/12/17 09:10:00;;;;;;;9.30;4.57;;;2.90;99.90;;;;;;5095649;28;20028;-79
2023/12/17 09:12:26;;;;;;;10.70;6.03;;;3.00;99.90;;;;;;5096272;28;20062;-78
2023/12/17 09:14:52;;;;;;;10.60;5.67;;;3.00;99.90;;;;;;5095730;28;20024;-79
2023/12/17 09:17:18;;;;;;;10.90;5.60;;;3.10;99.90;;;;;;5095086;28;20419;-79
2023/12/17 09:19:44;;;;;;;8.67;5.00;;;3.10;99.90;;;;;;5094583;28;20056;-79
2023/12/17 09:22:10;;;;;;;10.67;4.83;;;3.10;99.90;;;;;;5095066;28;20020;-78
2023/12/17 09:24:35;;;;;;;8.90;4.87;;;3.10;99.90;;;;;;5095509;28;20436;-80
2023/12/17 09:27:03;;;;;;;8.20;5.23;;;3.20;99.90;;;;;;5095703;28;20026;-78
2023/12/17 09:29:28;;;;;;;9.00;5.10;;;3.20;99.90;;;;;;5095646;28;20059;-78
2023/12/17 09:31:54;;;;;;;7.87;4.70;;;3.30;99.90;;;;;;5094150;28;20439;-79
2023/12/17 09:34:20;;;;;;;7.80;4.63;;;3.30;99.90;;;;;;5094355;28;20027;-78
2023/12/17 09:36:45;;;;;;;7.80;4.83;;;3.30;99.90;;;;;;5095767;28;20013;-79
2023/12/17 09:39:11;;;;;;;8.13;4.23;;;3.30;99.90;;;;;;5094190;28;20473;-80
2023/12/17 09:41:37;;;;;;;9.23;4.40;;;3.30;99.90;;;;;;5093766;28;20048;-80
2023/12/17 09:44:06;;;;;;;6.30;4.33;;;3.40;99.90;;;;;;5094584;28;20083;-79
2023/12/17 09:46:32;;;;;;;8.50;4.80;;;3.40;99.90;;;;;;5095497;28;20035;-78
2023/12/17 09:48:58;;;;;;;8.00;4.50;;;3.40;99.90;;;;;;5093921;28;20024;-79
2023/12/17 09:51:26;;;;;;;7.90;4.70;;;3.50;99.90;;;;;;5095654;28;20020;-79
2023/12/17 09:53:53;;;;;;;7.87;4.67;;;3.40;99.90;;;;;;5094014;28;20460;-78
2023/12/17 09:56:18;;;;;;;8.67;4.70;;;3.50;99.90;;;;;;5094499;28;20028;-78
2023/12/17 09:58:45;;;;;;;7.87;4.50;;;3.50;99.90;;;;;;5094817;28;20020;-79
2023/12/17 10:01:11;;;;;;;8.83;5.40;;;3.50;99.90;;;;;;5095472;28;20310;-78
2023/12/17 10:03:36;;;;;;;7.77;4.97;;;3.50;99.90;;;;;;5093871;28;20081;-88
2023/12/17 10:06:03;;;;;;;8.10;4.83;;;3.60;99.90;;;;;;5094235;28;20024;-78
2023/12/17 10:08:29;;;;;;;9.90;5.27;;;3.70;99.90;;;;;;5093960;28;20019;-79
2023/12/17 10:10:55;;;;;;;9.50;5.40;;;3.70;99.90;;;;;;5093088;28;20389;-78
2023/12/17 10:13:22;;;;;;;9.33;5.23;;;3.70;99.90;;;;;;5094968;28;20046;-78
2023/12/17 10:15:52;;;;;;;10.27;5.03;;;3.70;99.90;;;;;;5094334;28;20049;-77
2023/12/17 10:18:18;;;;;;;9.43;4.83;;;3.70;99.90;;;;;;5094023;28;20024;-78
2023/12/17 10:20:45;;;;;;;8.70;5.07;;;3.70;99.90;;;;;;5093347;28;20150;-79
2023/12/17 10:23:11;;;;;;;8.60;5.20;;;3.70;99.90;;;;;;5093746;28;20019;-78
2023/12/17 10:25:36;;;;;;;10.10;5.13;;;3.80;99.90;;;;;;5093955;28;20381;-78
2023/12/17 10:28:02;;;;;;;8.60;5.07;;;3.80;99.90;;;;;;5093256;28;20026;-78
2023/12/17 10:30:30;;;;;;;8.90;4.77;;;3.80;99.90;;;;;;5093712;28;20024;-78
2023/12/17 10:32:57;;;;;;;9.30;5.00;;;3.80;99.90;;;;;;5093246;28;20024;-79
2023/12/17 10:35:25;;;;;;;8.67;4.93;;;3.80;99.90;;;;;;5093484;28;20028;-78
2023/12/17 10:38:05;;;;;;;8.53;5.27;;;3.80;99.90;;;;;;5092836;28;20024;-78
2023/12/17 10:40:33;;;;;;;10.83;5.80;;;3.80;99.90;;;;;;5103415;28;20525;-78
2023/12/17 10:42:59;;;;;;;9.97;5.27;;;3.90;99.90;;;;;;5096183;28;20027;-78
2023/12/17 10:45:26;;;;;;;10.27;5.47;;;3.90;99.90;;;;;;5096315;28;20035;-78
2023/12/17 10:47:58;;;;;;;11.00;5.73;;;3.90;99.90;;;;;;5096336;28;20020;-78
2023/12/17 10:50:25;;;;;;;10.30;5.40;;;3.90;99.90;;;;;;5096793;28;20430;-78
2023/12/17 10:52:52;;;;;;;10.67;5.53;;;3.90;99.90;;;;;;5095891;28;20423;-78
2023/12/17 10:55:18;;;;;;;8.33;5.53;;;4.00;99.90;;;;;;5096308;28;20471;-78
2023/12/17 10:57:49;;;;;;;9.53;5.60;;;4.00;99.90;;;;;;5113982;28;20047;-79
2023/12/17 11:00:18;;;;;;;8.60;5.20;;;4.10;99.90;;;;;;5096438;28;20020;-78
2023/12/17 11:02:46;;;;;;;7.90;5.33;;;4.10;99.90;;;;;;5095762;28;20026;-79
2023/12/17 11:05:13;;;;;;;8.33;5.37;;;4.20;99.90;;;;;;5114280;28;20493;-77
2023/12/17 11:07:39;;;;;;;10.30;5.77;;;4.20;99.90;;;;;;5096256;28;20020;-78
2023/12/17 11:10:15;;;;;;;9.07;5.87;;;4.30;99.90;;;;;;5095644;28;20023;-78
2023/12/17 11:12:42;;;;;;;11.33;5.30;;;4.30;99.90;;;;;;5113863;28;20020;-84
2023/12/17 11:15:08;;;;;;;7.87;5.20;;;4.40;99.90;;;;;;5114307;28;20069;-78
2023/12/17 11:17:33;;;;;;;10.13;5.40;;;4.40;99.90;;;;;;5096178;28;20023;-78
2023/12/17 11:20:04;;;;;;;11.53;5.70;;;4.50;99.90;;;;;;5095473;28;20050;-78
2023/12/17 11:22:34;;;;;;;13.63;5.97;;;4.50;99.90;;;;;;5096024;28;20050;-77
2023/12/17 11:25:00;;;;;;;11.77;5.00;;;4.50;99.90;;;;;;5113488;28;20367;-78
2023/12/17 11:27:26;;;;;;;9.13;5.13;;;4.60;99.90;;;;;;5113835;28;20020;-78
2023/12/17 11:29:52;;;;;;;9.53;6.30;;;4.60;99.90;;;;;;5113349;28;20024;-78
2023/12/17 11:32:26;;;;;;;8.77;5.07;;;4.60;99.90;;;;;;5095559;28;20083;-78
2023/12/17 11:34:53;;;;;;;10.13;5.17;;;4.60;99.90;;;;;;5095229;28;20027;-78
2023/12/17 11:37:21;;;;;;;8.77;5.27;;;4.60;99.90;;;;;;5113794;28;20019;-77
2023/12/17 11:39:49;;;;;;;8.37;5.37;;;4.70;99.90;;;;;;5091499;28;20048;-78
2023/12/17 11:42:16;;;;;;;9.47;5.47;;;4.70;99.90;;;;;;5093353;28;20454;-78
2023/12/17 11:44:46;;;;;;;10.87;6.37;;;4.70;99.90;;;;;;5093373;28;20035;-78
2023/12/17 11:47:12;;;;;;;10.30;5.43;;;4.80;99.90;;;;;;5091905;28;20105;-78
2023/12/17 11:49:38;;;;;;;10.80;4.90;;;4.80;99.90;;;;;;5092089;28;20027;-78
2023/12/17 11:52:12;;;;;;;10.13;5.60;;;4.80;99.90;;;;;;5091718;28;20016;-78
2023/12/17 11:54:37;;;;;;;7.43;4.83;;;4.80;99.90;;;;;;5097686;28;20052;-78
2023/12/17 11:57:03;;;;;;;9.13;5.47;;;4.90;99.90;;;;;;5095890;28;20506;-78
2023/12/17 11:59:33;;;;;;;10.20;5.07;;;5.00;99.90;;;;;;5095968;28;20028;-78
2023/12/17 12:02:00;;;;;;;12.17;5.60;;;5.10;99.90;;;;;;5095546;28;20032;-78
2023/12/17 12:04:26;;;;;;;10.07;4.90;;;5.20;99.90;;;;;;5096148;28;20034;-78
2023/12/17 12:06:53;;;;;;;10.23;5.17;;;5.30;99.90;;;;;;5095529;28;20060;-78
2023/12/17 12:09:19;;;;;;;10.97;5.27;;;5.40;99.90;;;;;;5095906;28;20364;-78
2023/12/17 12:11:45;;;;;;;8.40;4.80;;;5.60;99.90;;;;;;5096516;28;20026;-80
2023/12/17 12:14:11;;;;;;;8.67;4.87;;;5.80;99.90;;;;;;5096127;28;20364;-78
2023/12/17 12:16:39;;;;;;;7.40;4.40;;;5.90;99.90;;;;;;5097123;28;20048;-78
2023/12/17 12:19:04;;;;;;;7.37;4.83;;;6.10;99.90;;;;;;5095387;28;20476;-78
2023/12/17 12:21:30;;;;;;;8.03;4.57;;;6.20;99.90;;;;;;5095688;28;20024;-79
2023/12/17 12:23:57;;;;;;;6.87;4.80;;;6.20;99.90;;;;;;5095325;28;20108;-77
2023/12/17 12:26:24;;;;;;;6.87;4.63;;;6.30;99.90;;;;;;5095762;28;20028;-78
2023/12/17 12:28:57;;;;;;;8.50;4.83;;;6.20;99.90;;;;;;5095112;28;20028;-78
2023/12/17 12:31:23;;;;;;;7.60;4.53;;;6.10;99.90;;;;;;5095611;28;20360;-78
2023/12/17 12:33:54;;;;;;;7.53;4.87;;;6.00;99.90;;;;;;5095231;28;20430;-78
2023/12/17 12:36:20;;;;;;;13.50;5.20;;;6.00;99.90;;;;;;5095426;28;20109;-78
2023/12/17 12:38:57;;;;;;;11.83;5.47;;;6.00;99.90;;;;;;5095171;28;20055;-90
2023/12/17 12:41:23;;;;;;;7.97;4.83;;;6.00;99.90;;;;;;5113394;28;20040;-78
2023/12/17 12:43:51;;;;;;;7.83;4.90;;;6.00;99.90;;;;;;5098635;28;20024;-78
2023/12/17 12:46:17;;;;;;;11.10;5.43;;;6.10;99.90;;;;;;5099340;28;20122;-78
2023/12/17 12:48:43;;;;;;;10.20;5.27;;;6.10;99.90;;;;;;5098729;28;20058;-79